createdAt,value
2019-03-11T00:02:47.960Z,98209.22
2019-03-11T00:06:50.441Z,98212.78
2019-03-11T00:10:53.143Z,98208.41
2019-03-11T00:14:55.849Z,98208.53
2019-03-11T00:18:58.587Z,98207.21
2019-03-11T00:23:01.224Z,98209.27
2019-03-11T00:27:05.090Z,98201.74
2019-03-11T00:31:07.778Z,98200.40
2019-03-11T00:35:10.409Z,98202.45
2019-03-11T00:39:12.839Z,98201.76
2019-03-11T00:43:15.495Z,98203.36
2019-03-11T00:47:18.350Z,98201.13
2019-03-11T00:51:20.850Z,98201.73
2019-03-11T00:55:23.312Z,98203.17
2019-03-11T00:59:25.955Z,98205.16
2019-03-11T01:03:28.394Z,98205.45
2019-03-11T01:07:31.034Z,98208.23
2019-03-11T01:11:33.451Z,98207.84
2019-03-11T01:15:35.987Z,98210.95
2019-03-11T01:19:38.422Z,98215.00
2019-03-11T01:23:41.139Z,98213.97
2019-03-11T01:27:43.661Z,98213.97
2019-03-11T01:31:46.162Z,98212.84
2019-03-11T01:35:48.682Z,98212.84
2019-03-11T01:39:51.342Z,98219.25
2019-03-11T01:43:53.772Z,98219.39
2019-03-11T01:47:56.616Z,98215.88
2019-03-11T01:51:59.112Z,98214.67
2019-03-11T01:56:01.608Z,98208.19
2019-03-11T02:00:05.017Z,98220.39
2019-03-11T02:04:08.551Z,98220.35
2019-03-11T02:08:11.235Z,98223.81
2019-03-11T02:12:13.791Z,98214.88
2019-03-11T02:16:16.582Z,98214.78
2019-03-11T02:20:19.348Z,98215.45
2019-03-11T02:24:21.784Z,98225.56
2019-03-11T02:28:24.260Z,98225.16
2019-03-11T02:32:28.670Z,98225.16
2019-03-11T02:36:30.886Z,98216.57
2019-03-11T02:40:34.589Z,98216.57
2019-03-11T02:44:37.105Z,98233.30
2019-03-11T02:48:39.674Z,98227.89
2019-03-11T02:52:42.393Z,98229.45
2019-03-11T02:56:44.860Z,98204.92
2019-03-11T03:00:48.858Z,98229.44
2019-03-11T03:05:01.931Z,98229.44
2019-03-11T03:09:06.016Z,98228.25
2019-03-11T03:13:08.752Z,98232.89
2019-03-11T03:17:12.642Z,98224.48
2019-03-11T03:21:15.160Z,98230.66
2019-03-11T03:25:32.147Z,98237.66
2019-03-11T03:29:21.891Z,98236.27
2019-03-11T03:33:24.357Z,98236.36
2019-03-11T03:37:27.809Z,98230.04
2019-03-11T03:41:30.435Z,98231.17
2019-03-11T03:45:35.722Z,98233.45
2019-03-11T03:49:38.903Z,98235.52
2019-03-11T03:53:41.560Z,98230.11
2019-03-11T03:57:44.213Z,98231.17
2019-03-11T04:01:46.662Z,98232.80
2019-03-11T04:05:49.308Z,98239.01
2019-03-11T04:09:51.726Z,98242.34
2019-03-11T04:13:54.270Z,98234.27
2019-03-11T04:17:56.962Z,98238.74
2019-03-11T04:21:59.556Z,98246.30
2019-03-11T04:26:02.192Z,98243.13
2019-03-11T04:30:05.514Z,98249.95
2019-03-11T04:34:07.954Z,98241.78
2019-03-11T04:38:10.549Z,98245.20
2019-03-11T04:42:12.972Z,98246.17
2019-03-11T04:46:15.559Z,98251.03
2019-03-11T04:50:18.661Z,98253.88
2019-03-11T04:54:21.292Z,98258.88
2019-03-11T04:58:23.719Z,98255.86
2019-03-11T05:02:26.270Z,98258.08
2019-03-11T05:06:28.701Z,98259.48
2019-03-11T05:10:31.198Z,98265.71
2019-03-11T05:14:33.630Z,98273.52
2019-03-11T05:18:36.114Z,98273.36
2019-03-11T05:22:38.733Z,98276.63
2019-03-11T05:26:42.280Z,98278.70
2019-03-11T05:30:44.857Z,98282.95
2019-03-11T05:34:48.614Z,98284.70
2019-03-11T05:38:51.040Z,98287.61
2019-03-11T05:42:53.544Z,98290.77
2019-03-11T05:46:56.032Z,98300.42
2019-03-11T05:50:58.578Z,98299.58
2019-03-11T05:55:02.200Z,98299.97
2019-03-11T05:59:04.744Z,98301.89
2019-03-11T06:03:07.143Z,98308.01
2019-03-11T06:07:09.636Z,98318.44
2019-03-11T06:11:12.065Z,98318.05
2019-03-11T06:15:15.405Z,98322.23
2019-03-11T06:19:17.835Z,98328.78
2019-03-11T06:23:20.447Z,98339.24
2019-03-11T06:27:22.883Z,98338.47
2019-03-11T06:31:25.382Z,98346.30
2019-03-11T06:35:27.863Z,98348.63
2019-03-11T06:39:30.464Z,98352.42
2019-03-11T06:43:33.114Z,98354.20
2019-03-11T06:47:35.638Z,98359.39
2019-03-11T06:51:38.232Z,98361.49
2019-03-11T06:55:40.773Z,98362.75
2019-03-11T06:59:44.418Z,98363.33
2019-03-11T07:03:46.885Z,98374.22
2019-03-11T07:07:49.375Z,98371.32
2019-03-11T07:11:51.843Z,98379.30
2019-03-11T07:15:54.267Z,98386.39
2019-03-11T07:19:56.868Z,98385.22
2019-03-11T07:24:00.679Z,98383.81
2019-03-11T07:28:03.363Z,98389.58
2019-03-11T07:32:05.828Z,98399.27
2019-03-11T07:36:08.728Z,98408.12
2019-03-11T07:40:11.360Z,98402.67
2019-03-11T07:44:15.123Z,98409.80
2019-03-11T07:48:17.753Z,98406.31
2019-03-11T07:52:20.249Z,98413.95
2019-03-11T07:56:22.767Z,98417.03
2019-03-11T08:00:25.252Z,98414.53
2019-03-11T08:04:27.658Z,98414.45
2019-03-11T08:08:31.222Z,98424.22
2019-03-11T08:12:33.659Z,98427.84
2019-03-11T08:16:36.143Z,98432.11
2019-03-11T08:20:38.562Z,98424.46
2019-03-11T08:24:41.073Z,98439.24
2019-03-11T08:28:43.508Z,98450.20
2019-03-11T08:32:46.202Z,98448.47
2019-03-11T08:36:49.874Z,98452.80
2019-03-11T08:40:52.387Z,98456.55
2019-03-11T08:44:54.789Z,98457.70
2019-03-11T08:48:57.348Z,98462.19
2019-03-11T08:53:00.089Z,98468.46
2019-03-11T08:57:02.603Z,98468.17
2019-03-11T09:01:06.422Z,98466.48
2019-03-11T09:05:10.240Z,98470.98
2019-03-11T09:09:14.504Z,98478.03
2019-03-11T09:13:16.973Z,98481.90
2019-03-11T09:17:19.392Z,98486.85
2019-03-11T09:21:22.285Z,98496.22
2019-03-11T09:25:24.822Z,98493.67
2019-03-11T09:29:27.288Z,98496.13
2019-03-11T09:33:29.689Z,98504.59
2019-03-11T09:37:32.188Z,98501.52
2019-03-11T09:41:34.704Z,98504.44
2019-03-11T09:45:37.393Z,98505.34
2019-03-11T09:49:39.836Z,98511.31
2019-03-11T09:53:42.760Z,98517.66
2019-03-11T09:57:45.300Z,98521.42
2019-03-11T10:01:47.978Z,98527.23
2019-03-11T10:05:50.361Z,98531.91
2019-03-11T10:09:52.951Z,98537.48
2019-03-11T10:13:55.401Z,98542.11
2019-03-11T10:17:57.977Z,98551.29
2019-03-11T10:22:00.379Z,98550.31
2019-03-11T10:26:02.901Z,98549.77
2019-03-11T10:30:06.496Z,98550.12
2019-03-11T10:34:08.981Z,98558.55
2019-03-11T10:38:11.480Z,98562.26
2019-03-11T10:42:14.026Z,98564.16
2019-03-11T10:46:16.571Z,98565.53
2019-03-11T10:50:19.327Z,98572.88
2019-03-11T10:54:21.759Z,98578.84
2019-03-11T10:58:25.895Z,98590.02
2019-03-11T11:02:28.416Z,98594.44
2019-03-11T11:06:30.858Z,98600.33
2019-03-11T11:10:33.276Z,98599.04
2019-03-11T11:14:35.976Z,98597.22
2019-03-11T11:18:38.738Z,98607.63
2019-03-11T11:22:41.402Z,98612.67
2019-03-11T11:26:43.916Z,98612.53
2019-03-11T11:30:46.409Z,98612.70
2019-03-11T11:34:49.947Z,98615.33
2019-03-11T11:38:52.755Z,98621.44
2019-03-11T11:42:55.302Z,98631.11
2019-03-11T11:46:57.837Z,98636.70
2019-03-11T11:51:00.225Z,98645.73
2019-03-11T11:55:02.731Z,98649.41
2019-03-11T11:59:05.266Z,98657.47
2019-03-11T12:03:09.602Z,98654.62
2019-03-11T12:07:12.307Z,98660.73
2019-03-11T12:11:14.770Z,98654.77
2019-03-11T12:15:17.499Z,98660.57
2019-03-11T12:19:21.431Z,98664.97
2019-03-11T12:23:24.204Z,98664.87
2019-03-11T12:27:26.885Z,98669.78
2019-03-11T12:31:29.581Z,98665.30
2019-03-11T12:35:33.579Z,98665.02
2019-03-11T12:39:36.129Z,98675.66
2019-03-11T12:43:38.588Z,98681.70
2019-03-11T12:47:41.096Z,98680.11
2019-03-11T12:51:49.674Z,98689.84
2019-03-11T12:55:48.942Z,98688.06
2019-03-11T12:59:51.488Z,98685.22
2019-03-11T13:03:53.912Z,98693.19
2019-03-11T13:07:58.298Z,98690.77
2019-03-11T13:12:00.832Z,98701.59
2019-03-11T13:16:03.648Z,98697.87
2019-03-11T13:20:08.788Z,98697.98
2019-03-11T13:24:11.300Z,98697.33
2019-03-11T13:28:13.748Z,98701.78
2019-03-11T13:32:16.278Z,98710.00
2019-03-11T13:36:19.152Z,98713.03
2019-03-11T13:40:21.694Z,98713.02
2019-03-11T13:44:24.245Z,98711.98
2019-03-11T13:48:26.750Z,98715.98
2019-03-11T13:52:29.303Z,98716.73
2019-03-11T13:56:31.834Z,98722.76
2019-03-11T14:00:34.287Z,98726.54
2019-03-11T14:04:36.970Z,98724.98
2019-03-11T14:08:39.644Z,98731.77
2019-03-11T14:12:42.472Z,98727.96
2019-03-11T14:16:44.978Z,98738.78
2019-03-11T14:20:47.500Z,98745.66
2019-03-11T14:24:50.186Z,98751.19
2019-03-11T14:28:52.766Z,98762.36
2019-03-11T14:32:55.431Z,98764.97
2019-03-11T14:36:57.923Z,98766.80
2019-03-11T14:41:00.380Z,98771.29
2019-03-11T14:45:02.962Z,98772.52
2019-03-11T14:49:05.696Z,98770.61
2019-03-11T14:53:08.684Z,98778.99
2019-03-11T14:57:11.420Z,98785.33
2019-03-11T15:01:13.902Z,98788.86
2019-03-11T15:05:17.739Z,98796.39
2019-03-11T15:09:20.525Z,98799.36
2019-03-11T15:13:24.846Z,98805.17
2019-03-11T15:17:28.761Z,98801.47
2019-03-11T15:21:31.420Z,98802.79
2019-03-11T15:25:34.086Z,98808.40
2019-03-11T15:29:36.615Z,98815.72
2019-03-11T15:33:41.134Z,98834.00
2019-03-11T15:37:43.746Z,98835.95
2019-03-11T15:41:49.413Z,98847.38
2019-03-11T15:45:51.857Z,98838.67
2019-03-11T15:49:54.399Z,98839.34
2019-03-11T15:53:56.855Z,98842.39
2019-03-11T15:57:59.391Z,98854.31
2019-03-11T16:02:02.042Z,98857.34
2019-03-11T16:06:04.813Z,98866.53
2019-03-11T16:10:16.382Z,98874.20
2019-03-11T16:14:13.017Z,98871.67
2019-03-11T16:18:15.560Z,98882.48
2019-03-11T16:22:23.263Z,98882.74
2019-03-11T16:26:22.715Z,98888.94
2019-03-11T16:30:25.495Z,98892.97
2019-03-11T16:34:30.316Z,98893.63
2019-03-11T16:38:33.329Z,98898.57
2019-03-11T16:42:36.129Z,98904.86
2019-03-11T16:46:40.664Z,98913.91
2019-03-11T16:50:43.411Z,98923.14
2019-03-11T16:54:45.977Z,98925.47
2019-03-11T16:58:48.441Z,98928.63
2019-03-11T17:02:51.132Z,98928.41
2019-03-11T17:06:53.921Z,98939.76
2019-03-11T17:10:57.517Z,98938.75
2019-03-11T17:15:00.008Z,98944.48
2019-03-11T17:19:02.925Z,98957.06
2019-03-11T17:23:05.537Z,98958.30
2019-03-11T17:27:08.031Z,98969.88
2019-03-11T17:31:10.451Z,98965.83
2019-03-11T17:35:13.131Z,98970.05
2019-03-11T17:39:15.911Z,98972.92
2019-03-11T17:43:20.032Z,98976.98
2019-03-11T17:47:22.551Z,98983.84
2019-03-11T17:51:25.482Z,98991.42
2019-03-11T17:55:28.011Z,98994.97
2019-03-11T17:59:30.739Z,98995.59
2019-03-11T18:03:33.346Z,98998.86
2019-03-11T18:07:35.917Z,98995.28
2019-03-11T18:11:39.897Z,99004.27
2019-03-11T18:15:42.889Z,99010.63
2019-03-11T18:19:46.867Z,99019.13
2019-03-11T18:23:49.404Z,99025.60
2019-03-11T18:27:51.942Z,99024.08
2019-03-11T18:32:01.967Z,99030.80
2019-03-11T18:35:58.992Z,99028.08
2019-03-11T18:40:01.490Z,99035.23
2019-03-11T18:44:05.915Z,99039.34
2019-03-11T18:48:08.639Z,99036.48
2019-03-11T18:52:11.229Z,99041.98
2019-03-11T18:56:13.791Z,99040.23
2019-03-11T19:00:18.791Z,99044.66
2019-03-11T19:04:21.343Z,99042.95
2019-03-11T19:08:25.158Z,99048.87
2019-03-11T19:12:27.865Z,99054.93
2019-03-11T19:16:30.443Z,99069.91
2019-03-11T19:20:35.098Z,99067.98
2019-03-11T19:24:37.625Z,99069.73
2019-03-11T19:28:40.199Z,99076.38
2019-03-11T19:32:42.692Z,99083.62
2019-03-11T19:36:46.806Z,99088.05
2019-03-11T19:40:49.416Z,99083.88
2019-03-11T19:44:51.934Z,99101.87
2019-03-11T19:48:54.407Z,99108.20
2019-03-11T19:52:58.970Z,99107.38
2019-03-11T19:57:01.223Z,99108.43
2019-03-11T20:01:03.856Z,99111.53
2019-03-11T20:05:07.148Z,99113.67
2019-03-11T20:09:14.652Z,99129.95
2019-03-11T20:13:17.621Z,99129.16
2019-03-11T20:17:20.510Z,99130.19
2019-03-11T20:21:25.112Z,99131.65
2019-03-11T20:25:29.308Z,99143.66
2019-03-11T20:29:33.926Z,99148.09
2019-03-11T20:33:36.079Z,99147.66
2019-03-11T20:37:38.602Z,99155.09
2019-03-11T20:41:41.443Z,99158.59
2019-03-11T20:45:43.946Z,99174.72
2019-03-11T20:49:46.529Z,99168.71
2019-03-11T20:53:48.999Z,99176.27
2019-03-11T20:57:51.590Z,99176.65
2019-03-11T21:01:54.094Z,99178.38
2019-03-11T21:05:57.040Z,99187.45
2019-03-11T21:09:59.530Z,99187.81
2019-03-11T21:14:02.149Z,99191.13
2019-03-11T21:18:04.799Z,99251.80
2019-03-11T21:22:09.348Z,99199.38
2019-03-11T21:26:12.076Z,99208.44
2019-03-11T21:30:17.403Z,99213.52
2019-03-11T21:34:21.264Z,99213.52
2019-03-11T21:38:23.815Z,99231.09
2019-03-11T21:42:27.483Z,99243.88
2019-03-11T21:46:30.256Z,99270.97
2019-03-11T21:50:32.840Z,99243.89
2019-03-11T21:54:35.420Z,99256.50
2019-03-11T21:58:38.039Z,99262.07
2019-03-11T22:02:40.700Z,99258.64
2019-03-11T22:06:43.281Z,99260.50
2019-03-11T22:10:47.186Z,99264.13
2019-03-11T22:14:49.488Z,99272.09
2019-03-11T22:18:52.017Z,99280.82
2019-03-11T22:22:54.703Z,99276.99
2019-03-11T22:26:57.067Z,99280.58
2019-03-11T22:30:59.428Z,99287.09
2019-03-11T22:35:12.149Z,99287.41
2019-03-11T22:39:06.847Z,99300.43
2019-03-11T22:43:09.336Z,99303.86
2019-03-11T22:47:11.818Z,99306.87
2019-03-11T22:51:14.350Z,99315.42
2019-03-11T22:55:17.399Z,99315.84
2019-03-11T22:59:21.024Z,99319.20
2019-03-11T23:03:24.338Z,99357.27
2019-03-11T23:07:26.665Z,99329.28
2019-03-11T23:11:28.948Z,99321.19
2019-03-11T23:15:31.533Z,99323.48
2019-03-11T23:19:33.787Z,99331.19
2019-03-11T23:23:36.648Z,99333.19
2019-03-11T23:27:38.981Z,99336.17
2019-03-11T23:31:41.336Z,99332.09
2019-03-11T23:35:43.701Z,99332.61
2019-03-11T23:39:46.070Z,99340.10
2019-03-11T23:43:48.316Z,99337.73
2019-03-11T23:47:50.692Z,99353.73
2019-03-11T23:51:53.033Z,99355.48
2019-03-11T23:55:55.408Z,99359.97
2019-03-11T23:59:57.690Z,99366.97
